Rockledge, FL

14:44 EDT je la 25an de julio 2017 (GMT -0400)
Pineland Park | | Change Station

Elev 36 ft 28.32 °N, 80.73 °W | Updated 14 minutes ago

Parte nuba
Parte nuba
93.8 °F
Sentas kiel 112 °F
N
0.0
Vento Varianta Vento from OrSOr
Gusts 6.0 mej/h

hodiaŭ
High -- | Low -- °F
--% Ebla precip.
hieraŭ
High -- | Low -- °F
Precip. -- co
Aerpremo 30.14 co
Vidodistanco 10.0 mejloj
Nuboj Malmultaj 7000 ft
Varmindico 112 °F
Rosopunkto 79 °F
Humido 63%
Pluvokvanto 0.00 co
Neĝprofundo Not available.
6:41 AM 8:17 PM
Kreskanta Lunarko, 8% visible
METAR KCOF 251758Z AUTO 09008KT 10SM FEW070 31/25 A3012 RMK AO2 SLP204 T03060253 10309 20276 58007 $
Aerpremo 30.14 co
Vidodistanco 10.0 mejloj
Nuboj Malmultaj 7000 ft
Varmindico 112 °F
Rosopunkto 79 °F
Humido 63%
Pluvokvanto 0.00 co
Neĝprofundo Not available.
6:41 AM 8:17 PM
Kreskanta Lunarko, 8% visible
METAR KCOF 251758Z AUTO 09008KT 10SM FEW070 31/25 A3012 RMK AO2 SLP204 T03060253 10309 20276 58007 $

Get Severe Weather Alerts

Thanks for signing up!

Be on the lookout for a verification email in your inbox.

You'll start receiving the daily forecast at 6 AM.

×

10-Day Weather Forecast

Almanac

Astronomio

Jul. 25, 2017 Leviĝo Subiro
Aktuala tempo
Civila krepusko
Naŭtika krepusko
Astronomia krepusko
Luno
Daŭro de videbla lumo
Daŭro de tago
Tomorrow will be .
, % of the Moon is Illuminated

Hodiaŭaj ekstremaĵoj

State Highs State Lows

Community

WunderPhotos

Category 6

Welcome to Category 6. This is the collective home for Weather Underground's featured writeups by Dr. Jeff Masters (right), Bob Henson (left), Chris Burt, and other regular contributors.

Nearby

Aerkvalito

  Aerkvalito Aerkvalita indico Poluanto
Not available.

Neĝa profundeco

Station Depth Alteco

Earthquake Activity

Urbo Distance Mag. Time & Date
Minimum magnitude displayed is 2.5.

Coastal Water Temperatures

Loko Temperaturo

Stations

Najbaraj veter-stacioj

Loko de stacio Temp Venta
kvazaŭtemperaturo
Rosopunkto Humido Vento Precip. Elev Ĝisdatigita je Tipo
                   

Watches & Warnings

There are currently no watches in effect.